sensor_id;sensor_type;location;lat;lon;timestamp;P1;durP1;ratioP1;P2;durP2;ratioP2
3563;SDS011;1796;52.388;13.096;2023-05-24T00:02:08;27.53;;;4.43;;
3563;SDS011;1796;52.388;13.096;2023-05-24T00:04:38;20.47;;;4.30;;
3563;SDS011;1796;52.388;13.096;2023-05-24T00:07:05;22.20;;;4.33;;
3563;SDS011;1796;52.388;13.096;2023-05-24T00:09:32;15.70;;;3.13;;
3563;SDS011;1796;52.388;13.096;2023-05-24T00:12:00;13.83;;;2.93;;
3563;SDS011;1796;52.388;13.096;2023-05-24T00:14:27;10.97;;;3.40;;
3563;SDS011;1796;52.388;13.096;2023-05-24T00:16:54;14.43;;;3.80;;
3563;SDS011;1796;52.388;13.096;2023-05-24T00:19:21;16.23;;;4.07;;
3563;SDS011;1796;52.388;13.096;2023-05-24T00:21:48;16.37;;;3.53;;
3563;SDS011;1796;52.388;13.096;2023-05-24T00:24:15;19.67;;;3.50;;
3563;SDS011;1796;52.388;13.096;2023-05-24T00:26:42;17.90;;;3.30;;
3563;SDS011;1796;52.388;13.096;2023-05-24T00:29:10;15.53;;;3.50;;
3563;SDS011;1796;52.388;13.096;2023-05-24T00:31:37;19.07;;;3.60;;
3563;SDS011;1796;52.388;13.096;2023-05-24T00:34:04;31.30;;;4.43;;
3563;SDS011;1796;52.388;13.096;2023-05-24T00:36:31;20.57;;;4.17;;
3563;SDS011;1796;52.388;13.096;2023-05-24T00:38:58;18.90;;;3.63;;
3563;SDS011;1796;52.388;13.096;2023-05-24T00:41:25;24.33;;;4.13;;
3563;SDS011;1796;52.388;13.096;2023-05-24T00:43:52;16.73;;;3.37;;
3563;SDS011;1796;52.388;13.096;2023-05-24T00:46:21;17.90;;;3.97;;
3563;SDS011;1796;52.388;13.096;2023-05-24T00:48:52;17.63;;;3.50;;
3563;SDS011;1796;52.388;13.096;2023-05-24T00:51:20;16.83;;;3.53;;
3563;SDS011;1796;52.388;13.096;2023-05-24T00:53:48;15.70;;;3.80;;
3563;SDS011;1796;52.388;13.096;2023-05-24T00:56:15;14.97;;;3.43;;
3563;SDS011;1796;52.388;13.096;2023-05-24T00:58:43;18.90;;;4.03;;
3563;SDS011;1796;52.388;13.096;2023-05-24T01:01:10;18.03;;;3.30;;
3563;SDS011;1796;52.388;13.096;2023-05-24T01:03:39;12.43;;;3.60;;
3563;SDS011;1796;52.388;13.096;2023-05-24T01:06:07;12.07;;;3.13;;
3563;SDS011;1796;52.388;13.096;2023-05-24T01:08:40;15.83;;;3.40;;
3563;SDS011;1796;52.388;13.096;2023-05-24T01:11:12;14.90;;;4.27;;
3563;SDS011;1796;52.388;13.096;2023-05-24T01:13:47;13.93;;;3.23;;
3563;SDS011;1796;52.388;13.096;2023-05-24T01:16:24;13.77;;;3.47;;
3563;SDS011;1796;52.388;13.096;2023-05-24T01:18:59;18.07;;;3.60;;
3563;SDS011;1796;52.388;13.096;2023-05-24T01:21:34;14.40;;;3.30;;
3563;SDS011;1796;52.388;13.096;2023-05-24T01:24:13;16.77;;;3.90;;
3563;SDS011;1796;52.388;13.096;2023-05-24T01:29:38;21.93;;;4.00;;
3563;SDS011;1796;52.388;13.096;2023-05-24T01:32:05;11.57;;;3.70;;
3563;SDS011;1796;52.388;13.096;2023-05-24T01:34:32;10.47;;;3.00;;
3563;SDS011;1796;52.388;13.096;2023-05-24T01:36:59;12.47;;;2.90;;
3563;SDS011;1796;52.388;13.096;2023-05-24T01:39:26;12.60;;;3.43;;
3563;SDS011;1796;52.388;13.096;2023-05-24T01:41:57;6.27;;;2.73;;
3563;SDS011;1796;52.388;13.096;2023-05-24T01:44:33;18.87;;;4.50;;
3563;SDS011;1796;52.388;13.096;2023-05-24T01:47:09;12.20;;;3.47;;
3563;SDS011;1796;52.388;13.096;2023-05-24T01:49:46;14.03;;;3.90;;
3563;SDS011;1796;52.388;13.096;2023-05-24T01:52:16;19.50;;;3.70;;
3563;SDS011;1796;52.388;13.096;2023-05-24T01:54:46;13.13;;;3.87;;
3563;SDS011;1796;52.388;13.096;2023-05-24T01:57:17;14.60;;;3.50;;
3563;SDS011;1796;52.388;13.096;2023-05-24T01:59:47;16.27;;;3.87;;
3563;SDS011;1796;52.388;13.096;2023-05-24T02:02:16;18.10;;;3.60;;
3563;SDS011;1796;52.388;13.096;2023-05-24T02:04:43;12.83;;;3.67;;
3563;SDS011;1796;52.388;13.096;2023-05-24T02:07:10;17.47;;;3.47;;
3563;SDS011;1796;52.388;13.096;2023-05-24T02:09:37;18.37;;;4.50;;
3563;SDS011;1796;52.388;13.096;2023-05-24T02:12:04;20.43;;;4.13;;
3563;SDS011;1796;52.388;13.096;2023-05-24T02:14:32;16.53;;;3.33;;
3563;SDS011;1796;52.388;13.096;2023-05-24T02:17:03;25.17;;;4.10;;
3563;SDS011;1796;52.388;13.096;2023-05-24T02:19:30;10.60;;;3.37;;
3563;SDS011;1796;52.388;13.096;2023-05-24T02:21:58;11.23;;;3.40;;
3563;SDS011;1796;52.388;13.096;2023-05-24T02:24:25;12.70;;;3.23;;
3563;SDS011;1796;52.388;13.096;2023-05-24T02:26:52;11.57;;;3.50;;
3563;SDS011;1796;52.388;13.096;2023-05-24T02:29:20;14.50;;;4.03;;
3563;SDS011;1796;52.388;13.096;2023-05-24T02:31:47;19.77;;;4.73;;
3563;SDS011;1796;52.388;13.096;2023-05-24T02:34:20;15.80;;;4.07;;
3563;SDS011;1796;52.388;13.096;2023-05-24T02:36:48;19.70;;;4.07;;
3563;SDS011;1796;52.388;13.096;2023-05-24T02:39:15;21.77;;;4.00;;
3563;SDS011;1796;52.388;13.096;2023-05-24T02:41:42;13.33;;;3.50;;
3563;SDS011;1796;52.388;13.096;2023-05-24T02:44:08;14.30;;;3.80;;
3563;SDS011;1796;52.388;13.096;2023-05-24T02:46:35;18.40;;;3.40;;
3563;SDS011;1796;52.388;13.096;2023-05-24T02:49:02;15.03;;;4.20;;
3563;SDS011;1796;52.388;13.096;2023-05-24T02:51:31;23.33;;;4.03;;
3563;SDS011;1796;52.388;13.096;2023-05-24T02:53:58;12.50;;;3.57;;
3563;SDS011;1796;52.388;13.096;2023-05-24T02:56:25;16.83;;;3.40;;
3563;SDS011;1796;52.388;13.096;2023-05-24T02:58:51;14.00;;;3.90;;
3563;SDS011;1796;52.388;13.096;2023-05-24T03:01:19;17.67;;;3.37;;
3563;SDS011;1796;52.388;13.096;2023-05-24T03:03:46;20.17;;;4.40;;
3563;SDS011;1796;52.388;13.096;2023-05-24T03:06:13;24.80;;;3.37;;
3563;SDS011;1796;52.388;13.096;2023-05-24T03:08:41;15.90;;;3.70;;
3563;SDS011;1796;52.388;13.096;2023-05-24T03:11:08;12.30;;;4.40;;
3563;SDS011;1796;52.388;13.096;2023-05-24T03:13:35;22.40;;;4.10;;
3563;SDS011;1796;52.388;13.096;2023-05-24T03:16:02;10.77;;;3.97;;
3563;SDS011;1796;52.388;13.096;2023-05-24T03:18:29;16.53;;;3.30;;
3563;SDS011;1796;52.388;13.096;2023-05-24T03:20:56;14.00;;;3.37;;
3563;SDS011;1796;52.388;13.096;2023-05-24T03:23:23;11.73;;;4.17;;
3563;SDS011;1796;52.388;13.096;2023-05-24T03:25:51;21.37;;;4.30;;
3563;SDS011;1796;52.388;13.096;2023-05-24T03:28:18;15.67;;;3.37;;
3563;SDS011;1796;52.388;13.096;2023-05-24T03:30:46;26.93;;;4.80;;
3563;SDS011;1796;52.388;13.096;2023-05-24T03:33:13;15.33;;;4.00;;
3563;SDS011;1796;52.388;13.096;2023-05-24T03:35:40;20.17;;;4.57;;
3563;SDS011;1796;52.388;13.096;2023-05-24T03:38:08;27.27;;;4.47;;
3563;SDS011;1796;52.388;13.096;2023-05-24T03:40:35;18.93;;;3.90;;
3563;SDS011;1796;52.388;13.096;2023-05-24T03:43:03;22.77;;;3.87;;
3563;SDS011;1796;52.388;13.096;2023-05-24T03:45:30;15.80;;;4.20;;
3563;SDS011;1796;52.388;13.096;2023-05-24T03:47:57;24.53;;;3.90;;
3563;SDS011;1796;52.388;13.096;2023-05-24T03:50:24;21.30;;;4.17;;
3563;SDS011;1796;52.388;13.096;2023-05-24T03:52:51;14.87;;;3.57;;
3563;SDS011;1796;52.388;13.096;2023-05-24T03:55:18;19.57;;;3.60;;
3563;SDS011;1796;52.388;13.096;2023-05-24T03:57:45;13.20;;;4.17;;
3563;SDS011;1796;52.388;13.096;2023-05-24T04:00:13;19.07;;;4.47;;
3563;SDS011;1796;52.388;13.096;2023-05-24T04:02:40;19.03;;;4.27;;
3563;SDS011;1796;52.388;13.096;2023-05-24T04:05:08;11.07;;;3.67;;
3563;SDS011;1796;52.388;13.096;2023-05-24T04:07:36;17.37;;;4.00;;
3563;SDS011;1796;52.388;13.096;2023-05-24T04:10:03;14.23;;;4.47;;
3563;SDS011;1796;52.388;13.096;2023-05-24T04:12:30;11.93;;;3.50;;
3563;SDS011;1796;52.388;13.096;2023-05-24T04:14:57;12.67;;;3.50;;
3563;SDS011;1796;52.388;13.096;2023-05-24T04:17:26;16.93;;;4.20;;
3563;SDS011;1796;52.388;13.096;2023-05-24T04:19:56;17.73;;;4.23;;
3563;SDS011;1796;52.388;13.096;2023-05-24T04:22:23;25.70;;;5.03;;
3563;SDS011;1796;52.388;13.096;2023-05-24T04:24:50;15.17;;;3.70;;
3563;SDS011;1796;52.388;13.096;2023-05-24T04:27:17;14.33;;;3.80;;
3563;SDS011;1796;52.388;13.096;2023-05-24T04:29:44;19.40;;;3.60;;
3563;SDS011;1796;52.388;13.096;2023-05-24T04:32:13;23.40;;;3.90;;
3563;SDS011;1796;52.388;13.096;2023-05-24T04:34:43;21.30;;;4.73;;
3563;SDS011;1796;52.388;13.096;2023-05-24T04:37:10;20.90;;;4.83;;
3563;SDS011;1796;52.388;13.096;2023-05-24T04:39:41;14.43;;;4.73;;
3563;SDS011;1796;52.388;13.096;2023-05-24T04:42:08;23.77;;;5.07;;
3563;SDS011;1796;52.388;13.096;2023-05-24T04:44:37;20.43;;;4.83;;
3563;SDS011;1796;52.388;13.096;2023-05-24T04:47:06;10.23;;;3.40;;
3563;SDS011;1796;52.388;13.096;2023-05-24T04:49:34;20.93;;;4.17;;
3563;SDS011;1796;52.388;13.096;2023-05-24T04:52:03;26.43;;;5.37;;
3563;SDS011;1796;52.388;13.096;2023-05-24T04:54:30;18.63;;;4.20;;
3563;SDS011;1796;52.388;13.096;2023-05-24T04:56:57;20.47;;;4.30;;
3563;SDS011;1796;52.388;13.096;2023-05-24T04:59:24;20.13;;;4.47;;
3563;SDS011;1796;52.388;13.096;2023-05-24T05:01:51;15.97;;;4.70;;
3563;SDS011;1796;52.388;13.096;2023-05-24T05:04:17;16.23;;;4.70;;
3563;SDS011;1796;52.388;13.096;2023-05-24T05:06:44;18.60;;;4.60;;
3563;SDS011;1796;52.388;13.096;2023-05-24T05:09:14;18.63;;;4.03;;
3563;SDS011;1796;52.388;13.096;2023-05-24T05:11:40;18.77;;;4.07;;
3563;SDS011;1796;52.388;13.096;2023-05-24T05:14:07;18.87;;;4.10;;
3563;SDS011;1796;52.388;13.096;2023-05-24T05:16:34;21.07;;;4.47;;
3563;SDS011;1796;52.388;13.096;2023-05-24T05:19:01;25.47;;;4.43;;
3563;SDS011;1796;52.388;13.096;2023-05-24T05:21:30;20.33;;;4.80;;
3563;SDS011;1796;52.388;13.096;2023-05-24T05:23:58;25.70;;;4.70;;
3563;SDS011;1796;52.388;13.096;2023-05-24T05:26:26;27.70;;;4.83;;
3563;SDS011;1796;52.388;13.096;2023-05-24T05:28:54;22.50;;;4.50;;
3563;SDS011;1796;52.388;13.096;2023-05-24T05:31:22;24.93;;;4.50;;
3563;SDS011;1796;52.388;13.096;2023-05-24T05:33:49;22.10;;;5.43;;
3563;SDS011;1796;52.388;13.096;2023-05-24T05:36:16;16.80;;;4.10;;
3563;SDS011;1796;52.388;13.096;2023-05-24T05:38:43;31.00;;;5.00;;
3563;SDS011;1796;52.388;13.096;2023-05-24T05:41:10;15.50;;;4.43;;
3563;SDS011;1796;52.388;13.096;2023-05-24T05:43:38;23.13;;;5.63;;
3563;SDS011;1796;52.388;13.096;2023-05-24T05:46:05;34.03;;;5.17;;
3563;SDS011;1796;52.388;13.096;2023-05-24T05:48:32;23.83;;;4.87;;
3563;SDS011;1796;52.388;13.096;2023-05-24T05:50:59;26.97;;;5.23;;
3563;SDS011;1796;52.388;13.096;2023-05-24T05:53:26;20.13;;;5.10;;
3563;SDS011;1796;52.388;13.096;2023-05-24T05:55:53;25.43;;;5.10;;
3563;SDS011;1796;52.388;13.096;2023-05-24T05:58:20;18.00;;;4.87;;
3563;SDS011;1796;52.388;13.096;2023-05-24T06:00:48;16.27;;;4.07;;
3563;SDS011;1796;52.388;13.096;2023-05-24T06:03:15;35.23;;;6.67;;
3563;SDS011;1796;52.388;13.096;2023-05-24T06:05:41;27.43;;;5.30;;
3563;SDS011;1796;52.388;13.096;2023-05-24T06:08:08;24.17;;;5.20;;
3563;SDS011;1796;52.388;13.096;2023-05-24T06:10:35;24.53;;;4.97;;
3563;SDS011;1796;52.388;13.096;2023-05-24T06:13:02;25.23;;;5.33;;
3563;SDS011;1796;52.388;13.096;2023-05-24T06:15:29;20.10;;;5.10;;
3563;SDS011;1796;52.388;13.096;2023-05-24T06:17:59;30.03;;;5.37;;
3563;SDS011;1796;52.388;13.096;2023-05-24T06:20:26;15.17;;;4.27;;
3563;SDS011;1796;52.388;13.096;2023-05-24T06:22:53;27.80;;;7.23;;
3563;SDS011;1796;52.388;13.096;2023-05-24T06:25:21;18.53;;;5.27;;
3563;SDS011;1796;52.388;13.096;2023-05-24T06:27:48;27.20;;;5.57;;
3563;SDS011;1796;52.388;13.096;2023-05-24T06:30:16;21.93;;;4.60;;
3563;SDS011;1796;52.388;13.096;2023-05-24T06:32:43;21.40;;;4.73;;
3563;SDS011;1796;52.388;13.096;2023-05-24T06:35:11;27.60;;;6.47;;
3563;SDS011;1796;52.388;13.096;2023-05-24T06:37:38;19.53;;;5.17;;
3563;SDS011;1796;52.388;13.096;2023-05-24T06:40:05;30.80;;;6.70;;
3563;SDS011;1796;52.388;13.096;2023-05-24T06:42:34;35.60;;;5.67;;
3563;SDS011;1796;52.388;13.096;2023-05-24T06:45:01;21.87;;;4.90;;
3563;SDS011;1796;52.388;13.096;2023-05-24T06:47:28;31.83;;;4.97;;
3563;SDS011;1796;52.388;13.096;2023-05-24T06:49:55;21.43;;;5.43;;
3563;SDS011;1796;52.388;13.096;2023-05-24T06:52:23;32.70;;;6.80;;
3563;SDS011;1796;52.388;13.096;2023-05-24T06:54:50;46.10;;;5.97;;
3563;SDS011;1796;52.388;13.096;2023-05-24T06:57:17;30.80;;;6.97;;
3563;SDS011;1796;52.388;13.096;2023-05-24T06:59:44;30.47;;;7.10;;
3563;SDS011;1796;52.388;13.096;2023-05-24T07:02:11;26.00;;;5.47;;
3563;SDS011;1796;52.388;13.096;2023-05-24T07:04:38;25.80;;;5.30;;
3563;SDS011;1796;52.388;13.096;2023-05-24T07:07:06;23.33;;;5.80;;
3563;SDS011;1796;52.388;13.096;2023-05-24T07:09:38;23.60;;;5.40;;
3563;SDS011;1796;52.388;13.096;2023-05-24T07:12:05;23.20;;;6.07;;
3563;SDS011;1796;52.388;13.096;2023-05-24T07:14:32;26.93;;;6.10;;
3563;SDS011;1796;52.388;13.096;2023-05-24T07:16:58;28.50;;;6.00;;
3563;SDS011;1796;52.388;13.096;2023-05-24T07:19:25;27.83;;;6.30;;
3563;SDS011;1796;52.388;13.096;2023-05-24T07:21:53;32.43;;;6.00;;
3563;SDS011;1796;52.388;13.096;2023-05-24T07:24:20;41.80;;;7.03;;
3563;SDS011;1796;52.388;13.096;2023-05-24T07:26:49;21.30;;;6.50;;
3563;SDS011;1796;52.388;13.096;2023-05-24T07:29:17;24.20;;;5.40;;
3563;SDS011;1796;52.388;13.096;2023-05-24T07:31:45;26.43;;;6.40;;
3563;SDS011;1796;52.388;13.096;2023-05-24T07:34:12;23.50;;;5.40;;
3563;SDS011;1796;52.388;13.096;2023-05-24T07:36:39;15.70;;;5.87;;
3563;SDS011;1796;52.388;13.096;2023-05-24T07:39:06;25.23;;;6.83;;
3563;SDS011;1796;52.388;13.096;2023-05-24T07:41:34;22.53;;;5.50;;
3563;SDS011;1796;52.388;13.096;2023-05-24T07:44:03;24.77;;;5.47;;
3563;SDS011;1796;52.388;13.096;2023-05-24T07:46:30;23.20;;;5.33;;
3563;SDS011;1796;52.388;13.096;2023-05-24T07:48:57;25.30;;;5.93;;
3563;SDS011;1796;52.388;13.096;2023-05-24T07:51:25;36.57;;;7.57;;
3563;SDS011;1796;52.388;13.096;2023-05-24T07:53:52;24.10;;;6.17;;
3563;SDS011;1796;52.388;13.096;2023-05-24T07:56:18;21.23;;;5.60;;
3563;SDS011;1796;52.388;13.096;2023-05-24T07:58:45;24.97;;;6.03;;
3563;SDS011;1796;52.388;13.096;2023-05-24T08:01:14;30.80;;;5.50;;
3563;SDS011;1796;52.388;13.096;2023-05-24T08:03:42;35.83;;;6.97;;
3563;SDS011;1796;52.388;13.096;2023-05-24T08:06:10;30.67;;;6.27;;
3563;SDS011;1796;52.388;13.096;2023-05-24T08:08:37;23.03;;;6.60;;
3563;SDS011;1796;52.388;13.096;2023-05-24T08:11:05;25.87;;;5.90;;
3563;SDS011;1796;52.388;13.096;2023-05-24T08:13:33;26.67;;;5.67;;
3563;SDS011;1796;52.388;13.096;2023-05-24T08:15:59;21.33;;;5.50;;
3563;SDS011;1796;52.388;13.096;2023-05-24T08:18:28;29.47;;;6.07;;
3563;SDS011;1796;52.388;13.096;2023-05-24T08:20:54;23.17;;;5.73;;
3563;SDS011;1796;52.388;13.096;2023-05-24T08:23:21;23.50;;;5.63;;
3563;SDS011;1796;52.388;13.096;2023-05-24T08:25:48;23.83;;;4.90;;
3563;SDS011;1796;52.388;13.096;2023-05-24T08:28:15;27.60;;;5.40;;
3563;SDS011;1796;52.388;13.096;2023-05-24T08:30:42;19.90;;;5.47;;
3563;SDS011;1796;52.388;13.096;2023-05-24T08:33:09;19.57;;;5.70;;
3563;SDS011;1796;52.388;13.096;2023-05-24T08:35:37;20.10;;;5.30;;
3563;SDS011;1796;52.388;13.096;2023-05-24T08:38:04;22.63;;;5.03;;
3563;SDS011;1796;52.388;13.096;2023-05-24T08:40:31;25.67;;;5.50;;
3563;SDS011;1796;52.388;13.096;2023-05-24T08:42:58;24.90;;;5.90;;
3563;SDS011;1796;52.388;13.096;2023-05-24T08:45:28;24.17;;;6.30;;
3563;SDS011;1796;52.388;13.096;2023-05-24T08:47:56;16.90;;;5.37;;
3563;SDS011;1796;52.388;13.096;2023-05-24T08:50:24;30.43;;;6.13;;
3563;SDS011;1796;52.388;13.096;2023-05-24T08:52:52;16.40;;;4.73;;
3563;SDS011;1796;52.388;13.096;2023-05-24T08:55:20;19.80;;;5.30;;
3563;SDS011;1796;52.388;13.096;2023-05-24T08:57:47;19.87;;;4.90;;
3563;SDS011;1796;52.388;13.096;2023-05-24T09:00:15;12.97;;;4.53;;
3563;SDS011;1796;52.388;13.096;2023-05-24T09:02:44;12.97;;;3.90;;
3563;SDS011;1796;52.388;13.096;2023-05-24T09:05:12;18.20;;;5.40;;
3563;SDS011;1796;52.388;13.096;2023-05-24T09:07:41;15.80;;;4.90;;
3563;SDS011;1796;52.388;13.096;2023-05-24T09:10:11;15.00;;;4.63;;
3563;SDS011;1796;52.388;13.096;2023-05-24T09:12:38;13.97;;;4.10;;
3563;SDS011;1796;52.388;13.096;2023-05-24T09:15:09;19.10;;;4.60;;
3563;SDS011;1796;52.388;13.096;2023-05-24T09:17:37;18.70;;;5.43;;
3563;SDS011;1796;52.388;13.096;2023-05-24T09:20:05;23.23;;;4.97;;
3563;SDS011;1796;52.388;13.096;2023-05-24T09:22:34;14.63;;;4.27;;
3563;SDS011;1796;52.388;13.096;2023-05-24T09:25:04;16.50;;;3.83;;
3563;SDS011;1796;52.388;13.096;2023-05-24T09:27:34;14.07;;;4.00;;
3563;SDS011;1796;52.388;13.096;2023-05-24T09:30:02;15.70;;;4.50;;
3563;SDS011;1796;52.388;13.096;2023-05-24T09:32:34;12.30;;;3.83;;
3563;SDS011;1796;52.388;13.096;2023-05-24T09:35:01;18.40;;;3.90;;
3563;SDS011;1796;52.388;13.096;2023-05-24T09:37:28;13.13;;;3.50;;
3563;SDS011;1796;52.388;13.096;2023-05-24T09:39:55;14.80;;;4.20;;
3563;SDS011;1796;52.388;13.096;2023-05-24T09:42:23;13.30;;;3.50;;
3563;SDS011;1796;52.388;13.096;2023-05-24T09:45:03;18.33;;;3.70;;
3563;SDS011;1796;52.388;13.096;2023-05-24T09:47:33;12.43;;;3.67;;
3563;SDS011;1796;52.388;13.096;2023-05-24T09:50:01;14.07;;;4.77;;
3563;SDS011;1796;52.388;13.096;2023-05-24T09:52:28;12.13;;;3.60;;
3563;SDS011;1796;52.388;13.096;2023-05-24T09:54:55;12.57;;;3.07;;
3563;SDS011;1796;52.388;13.096;2023-05-24T09:57:22;18.67;;;4.03;;
3563;SDS011;1796;52.388;13.096;2023-05-24T09:59:50;14.47;;;4.27;;
3563;SDS011;1796;52.388;13.096;2023-05-24T10:02:19;15.60;;;3.83;;
3563;SDS011;1796;52.388;13.096;2023-05-24T10:04:47;11.90;;;3.30;;
3563;SDS011;1796;52.388;13.096;2023-05-24T10:07:22;9.20;;;2.90;;
3563;SDS011;1796;52.388;13.096;2023-05-24T10:09:49;13.63;;;3.10;;
3563;SDS011;1796;52.388;13.096;2023-05-24T10:12:17;9.50;;;3.23;;
3563;SDS011;1796;52.388;13.096;2023-05-24T10:14:47;9.20;;;3.20;;
3563;SDS011;1796;52.388;13.096;2023-05-24T10:17:15;15.53;;;3.70;;
3563;SDS011;1796;52.388;13.096;2023-05-24T10:19:43;8.83;;;3.00;;
3563;SDS011;1796;52.388;13.096;2023-05-24T10:22:10;6.07;;;2.70;;
3563;SDS011;1796;52.388;13.096;2023-05-24T10:24:39;9.73;;;3.53;;
3563;SDS011;1796;52.388;13.096;2023-05-24T10:27:12;9.37;;;3.23;;
3563;SDS011;1796;52.388;13.096;2023-05-24T10:29:43;6.57;;;3.23;;
3563;SDS011;1796;52.388;13.096;2023-05-24T10:32:17;9.43;;;3.03;;
3563;SDS011;1796;52.388;13.096;2023-05-24T10:34:48;7.93;;;3.00;;
3563;SDS011;1796;52.388;13.096;2023-05-24T10:37:18;6.37;;;2.87;;
3563;SDS011;1796;52.388;13.096;2023-05-24T10:39:45;14.83;;;3.30;;
3563;SDS011;1796;52.388;13.096;2023-05-24T10:42:11;13.50;;;3.60;;
3563;SDS011;1796;52.388;13.096;2023-05-24T10:44:38;12.00;;;3.30;;
3563;SDS011;1796;52.388;13.096;2023-05-24T10:47:09;9.23;;;2.83;;
3563;SDS011;1796;52.388;13.096;2023-05-24T10:49:37;11.07;;;3.90;;
3563;SDS011;1796;52.388;13.096;2023-05-24T10:52:09;6.67;;;3.20;;
3563;SDS011;1796;52.388;13.096;2023-05-24T10:54:37;6.30;;;2.87;;
3563;SDS011;1796;52.388;13.096;2023-05-24T10:57:06;12.83;;;3.13;;
3563;SDS011;1796;52.388;13.096;2023-05-24T10:59:34;6.13;;;2.80;;
3563;SDS011;1796;52.388;13.096;2023-05-24T11:02:03;6.13;;;3.10;;
3563;SDS011;1796;52.388;13.096;2023-05-24T11:04:35;11.27;;;3.63;;
3563;SDS011;1796;52.388;13.096;2023-05-24T11:07:04;6.20;;;2.80;;
3563;SDS011;1796;52.388;13.096;2023-05-24T11:09:36;6.47;;;2.10;;
3563;SDS011;1796;52.388;13.096;2023-05-24T11:12:12;12.27;;;2.50;;
3563;SDS011;1796;52.388;13.096;2023-05-24T11:14:40;3.43;;;2.40;;
3563;SDS011;1796;52.388;13.096;2023-05-24T11:17:12;4.73;;;1.70;;
3563;SDS011;1796;52.388;13.096;2023-05-24T11:19:44;5.40;;;2.00;;
3563;SDS011;1796;52.388;13.096;2023-05-24T11:22:12;2.10;;;1.90;;
3563;SDS011;1796;52.388;13.096;2023-05-24T11:24:41;2.33;;;2.00;;
3563;SDS011;1796;52.388;13.096;2023-05-24T11:27:10;4.50;;;1.90;;
3563;SDS011;1796;52.388;13.096;2023-05-24T11:29:41;7.53;;;2.30;;
3563;SDS011;1796;52.388;13.096;2023-05-24T11:32:09;6.90;;;2.23;;
3563;SDS011;1796;52.388;13.096;2023-05-24T11:34:39;6.63;;;2.40;;
3563;SDS011;1796;52.388;13.096;2023-05-24T11:37:09;6.70;;;2.77;;
3563;SDS011;1796;52.388;13.096;2023-05-24T11:39:37;11.93;;;3.57;;
3563;SDS011;1796;52.388;13.096;2023-05-24T11:42:06;7.40;;;2.20;;
3563;SDS011;1796;52.388;13.096;2023-05-24T11:44:34;3.80;;;2.20;;
3563;SDS011;1796;52.388;13.096;2023-05-24T11:47:03;8.57;;;2.30;;
3563;SDS011;1796;52.388;13.096;2023-05-24T11:49:31;19.03;;;2.80;;
3563;SDS011;1796;52.388;13.096;2023-05-24T11:51:58;7.00;;;2.13;;
3563;SDS011;1796;52.388;13.096;2023-05-24T11:54:26;9.10;;;1.80;;
3563;SDS011;1796;52.388;13.096;2023-05-24T11:56:54;4.00;;;1.90;;
3563;SDS011;1796;52.388;13.096;2023-05-24T11:59:23;8.33;;;2.47;;
3563;SDS011;1796;52.388;13.096;2023-05-24T12:01:55;2.80;;;2.03;;
3563;SDS011;1796;52.388;13.096;2023-05-24T12:04:24;2.40;;;2.13;;
3563;SDS011;1796;52.388;13.096;2023-05-24T12:06:51;3.13;;;2.00;;
3563;SDS011;1796;52.388;13.096;2023-05-24T12:09:18;3.40;;;1.73;;
3563;SDS011;1796;52.388;13.096;2023-05-24T12:11:46;7.70;;;2.63;;
3563;SDS011;1796;52.388;13.096;2023-05-24T12:14:15;6.10;;;2.70;;
3563;SDS011;1796;52.388;13.096;2023-05-24T12:16:44;3.60;;;1.80;;
3563;SDS011;1796;52.388;13.096;2023-05-24T12:19:12;8.00;;;2.97;;
3563;SDS011;1796;52.388;13.096;2023-05-24T12:21:42;6.27;;;2.37;;
3563;SDS011;1796;52.388;13.096;2023-05-24T12:24:10;4.00;;;1.97;;
3563;SDS011;1796;52.388;13.096;2023-05-24T12:26:39;4.83;;;1.87;;
3563;SDS011;1796;52.388;13.096;2023-05-24T12:29:08;7.53;;;2.40;;
3563;SDS011;1796;52.388;13.096;2023-05-24T12:31:35;6.50;;;2.40;;
3563;SDS011;1796;52.388;13.096;2023-05-24T12:34:03;4.47;;;2.30;;
3563;SDS011;1796;52.388;13.096;2023-05-24T12:36:31;4.60;;;2.37;;
3563;SDS011;1796;52.388;13.096;2023-05-24T12:38:59;2.23;;;1.83;;
3563;SDS011;1796;52.388;13.096;2023-05-24T12:41:41;4.17;;;2.00;;
3563;SDS011;1796;52.388;13.096;2023-05-24T12:44:08;4.60;;;2.10;;
3563;SDS011;1796;52.388;13.096;2023-05-24T12:46:35;3.57;;;2.13;;
3563;SDS011;1796;52.388;13.096;2023-05-24T12:49:03;6.43;;;2.10;;
3563;SDS011;1796;52.388;13.096;2023-05-24T12:51:30;3.70;;;2.30;;
3563;SDS011;1796;52.388;13.096;2023-05-24T12:53:57;3.87;;;2.00;;
3563;SDS011;1796;52.388;13.096;2023-05-24T12:56:26;5.60;;;2.60;;
3563;SDS011;1796;52.388;13.096;2023-05-24T12:58:53;5.00;;;1.80;;
3563;SDS011;1796;52.388;13.096;2023-05-24T13:01:20;6.73;;;2.50;;
3563;SDS011;1796;52.388;13.096;2023-05-24T13:03:48;5.93;;;2.37;;
3563;SDS011;1796;52.388;13.096;2023-05-24T13:06:16;5.77;;;1.90;;
3563;SDS011;1796;52.388;13.096;2023-05-24T13:08:43;13.20;;;2.60;;
3563;SDS011;1796;52.388;13.096;2023-05-24T13:11:10;5.10;;;2.00;;
3563;SDS011;1796;52.388;13.096;2023-05-24T13:13:37;4.90;;;2.20;;
3563;SDS011;1796;52.388;13.096;2023-05-24T13:16:04;6.03;;;2.50;;
3563;SDS011;1796;52.388;13.096;2023-05-24T13:18:33;4.67;;;2.23;;
3563;SDS011;1796;52.388;13.096;2023-05-24T13:21:03;6.37;;;2.80;;
3563;SDS011;1796;52.388;13.096;2023-05-24T13:23:32;4.10;;;1.90;;
3563;SDS011;1796;52.388;13.096;2023-05-24T13:26:00;3.00;;;2.07;;
3563;SDS011;1796;52.388;13.096;2023-05-24T13:28:28;4.40;;;2.50;;
3563;SDS011;1796;52.388;13.096;2023-05-24T13:30:55;5.90;;;1.87;;
3563;SDS011;1796;52.388;13.096;2023-05-24T13:33:22;8.10;;;2.27;;
3563;SDS011;1796;52.388;13.096;2023-05-24T13:35:51;7.03;;;2.60;;
3563;SDS011;1796;52.388;13.096;2023-05-24T13:38:19;7.63;;;2.53;;
3563;SDS011;1796;52.388;13.096;2023-05-24T13:40:48;5.60;;;2.40;;
3563;SDS011;1796;52.388;13.096;2023-05-24T13:43:15;8.23;;;2.70;;
3563;SDS011;1796;52.388;13.096;2023-05-24T13:45:42;3.43;;;2.00;;
3563;SDS011;1796;52.388;13.096;2023-05-24T13:48:11;11.20;;;3.00;;
3563;SDS011;1796;52.388;13.096;2023-05-24T13:50:38;4.70;;;2.77;;
3563;SDS011;1796;52.388;13.096;2023-05-24T13:53:05;5.80;;;2.50;;
3563;SDS011;1796;52.388;13.096;2023-05-24T13:55:33;6.37;;;2.67;;
3563;SDS011;1796;52.388;13.096;2023-05-24T13:58:03;5.50;;;2.37;;
3563;SDS011;1796;52.388;13.096;2023-05-24T14:00:30;7.23;;;2.60;;
3563;SDS011;1796;52.388;13.096;2023-05-24T14:02:59;10.80;;;2.80;;
3563;SDS011;1796;52.388;13.096;2023-05-24T14:05:26;7.37;;;2.83;;
3563;SDS011;1796;52.388;13.096;2023-05-24T14:07:55;7.10;;;2.20;;
3563;SDS011;1796;52.388;13.096;2023-05-24T14:10:24;8.97;;;2.83;;
3563;SDS011;1796;52.388;13.096;2023-05-24T14:12:51;4.47;;;2.30;;
3563;SDS011;1796;52.388;13.096;2023-05-24T14:15:19;13.80;;;3.10;;
3563;SDS011;1796;52.388;13.096;2023-05-24T14:17:46;4.77;;;2.70;;
3563;SDS011;1796;52.388;13.096;2023-05-24T14:20:13;3.57;;;2.57;;
3563;SDS011;1796;52.388;13.096;2023-05-24T14:22:39;4.27;;;2.57;;
3563;SDS011;1796;52.388;13.096;2023-05-24T14:25:07;4.53;;;2.27;;
3563;SDS011;1796;52.388;13.096;2023-05-24T14:27:34;3.30;;;2.13;;
3563;SDS011;1796;52.388;13.096;2023-05-24T14:30:02;5.90;;;2.40;;
3563;SDS011;1796;52.388;13.096;2023-05-24T14:32:31;6.60;;;2.23;;
3563;SDS011;1796;52.388;13.096;2023-05-24T14:34:58;6.93;;;3.00;;
3563;SDS011;1796;52.388;13.096;2023-05-24T14:37:25;9.20;;;3.20;;
3563;SDS011;1796;52.388;13.096;2023-05-24T14:40:03;5.63;;;2.20;;
3563;SDS011;1796;52.388;13.096;2023-05-24T14:42:33;6.53;;;2.60;;
3563;SDS011;1796;52.388;13.096;2023-05-24T14:45:00;6.07;;;2.37;;
3563;SDS011;1796;52.388;13.096;2023-05-24T14:47:28;6.87;;;2.73;;
3563;SDS011;1796;52.388;13.096;2023-05-24T14:49:56;8.27;;;2.40;;
3563;SDS011;1796;52.388;13.096;2023-05-24T14:52:23;10.47;;;3.00;;
3563;SDS011;1796;52.388;13.096;2023-05-24T14:54:50;4.70;;;2.63;;
3563;SDS011;1796;52.388;13.096;2023-05-24T14:57:17;8.27;;;2.70;;
3563;SDS011;1796;52.388;13.096;2023-05-24T14:59:44;7.70;;;2.60;;